Terminal Aerodrome Forecast
Issued by NWS Pocatello, ID

Home | Current Version | Previous Version | Text Only | Print | Product List | Glossary On
Versions: 1 2 3 4 5 6 7 8 9 10 11 12 13 14 15 16 17 18 19 20 21 22 23 24 25
933
FTUS45 KPIH 240521
TAFBYI
TAF
KBYI 240521Z 2406/2506 26014G24KT 6SM -SN BLSN BR SCT015 OVC020
     FM241000 25015KT 2SM -SN BR BKN020 OVC050
     FM241500 26015G25KT P6SM SCT015 BKN050
     FM250100 20010KT P6SM SCT150=

USA.gov is the U.S. government's official web portal to all federal, state and local government web resources and services.